This is the latest recevied weather packets stored in our database for station/object CE7LGA-10. If no packets are shown the sender has not sent any weather packets the latest 1 day(s).
| Time | Temp. | Humidity | Pressure | Rain* | Wind** | Luminosity | Snow |
|---|---|---|---|---|---|---|---|
| 1778072829 | 13.33° C | 77% | 998.8 hPa | - | - | - | - |
| 1778069232 | 13.33° C | 77% | 998.5 hPa | - | - | - | - |
| 1778068332 | 13.89° C | 78% | 998.4 hPa | - | - | - | - |
| 1778067432 | 13.89° C | 79% | 998.4 hPa | - | - | - | - |
| 1778066532 | 15° C | 81% | 998.3 hPa | - | - | - | - |
| 1778054830 | 13.33° C | 74% | 996.8 hPa | - | - | - | - |
| 1778053930 | 13.89° C | 74% | 997 hPa | - | - | - | - |
| 1778053030 | 13.89° C | 74% | 997 hPa | - | - | - | - |
| 1778052130 | 13.89° C | 74% | 996.9 hPa | - | - | - | - |
| 1778051230 | 13.89° C | 74% | 996.8 hPa | - | - | - | - |
| 1778050329 | 13.89° C | 74% | 996.8 hPa | - | - | - | - |
| 1778049432 | 13.89° C | 74% | 997 hPa | - | - | - | - |
| 1778048532 | 13.89° C | 74% | 997 hPa | - | - | - | - |
| 1778044031 | 14.44° C | 74% | 997 hPa | - | - | - | - |
| 1778043131 | 14.44° C | 73% | 997.1 hPa | - | - | - | - |
| 1778042231 | 14.44° C | 73% | 997.1 hPa | - | - | - | - |
| 1778041331 | 14.44° C | 73% | 997.4 hPa | - | - | - | - |
| 1778040431 | 15° C | 73% | 997.3 hPa | - | - | - | - |
| 1778039531 | 15° C | 73% | 997.2 hPa | - | - | - | - |
| 1778038631 | 15° C | 73% | 997.4 hPa | - | - | - | - |
| 1778037731 | 15.56° C | 73% | 997 hPa | - | - | - | - |
| 1778035030 | 16.11° C | 72% | 996.9 hPa | - | - | - | - |
| 1778034130 | 16.67° C | 71% | 997 hPa | - | - | - | - |
| 1778033230 | 17.22° C | 71% | 997.1 hPa | - | - | - | - |
| 1778032330 | 17.22° C | 72% | 997 hPa | - | - | - | - |
* Rain since midnight (hover to see other rain measurements)
** Current wind speed in m/s (hover to see current wind gust speed)